< < Back
Terminal Aerodrome Forecast


Current Version              Previous Versions:   1  2  3  4  5  6  7  8  9  

Terminal Aerodrome Forecast

638
FTUS44 KBMX 271735
TAFANB
TAF
KANB 271735Z 2718/2818 05007KT P6SM SCT050
     FM280100 07002KT P6SM SKC
      TEMPO 2808/2812 4SM BR
     FM281500 08007KT P6SM SKC=



Latest METAR

791
SAUS70 KWBC 280656
MTRANB
METAR KANB 280653Z AUTO 00000KT 8SM CLR 21/18 A3004 RMK AO2 SLP162
T02060178


USA.gov is the U.S. government's official web portal to all federal, state and local government web resources and services.